Luiz Lima

Olheiro - Fortaleza
13 Set 2026
Domingo
Processo

Personalidade

Adaptabilidade (13) Ambição (4) Controvérsia (1) Lealdade (2) Pressão (17) Profissionalismo (11) Espírito Esportivo (9) Temperamento (18)

Perfil

Estilo de Treinamento Democrático
Licença Nacional A
Determinação 8
Gestão de Pessoas 5
Motivação 12
Disciplina 13
Satisfação no Trabalho
50%
Fadiga
0%
Função Olheiro
Salário 68.9K p/s
Contrato 14.03.2027

Desempenho

Comportamento Normal
Eficácia do Treinamento
23%
Desenvolvimento do Jogador
25%
Prevenção de Lesões
30%
Implementação Tática
50%

Eventos Recentes

Participou de uma reunião de recrutamento agora
Avaliou um jogador agora
Avaliou um jogador agora
Avaliou um jogador 7d atrás
Avaliou um jogador 7d atrás
Avaliou um jogador 7d atrás
Avaliou um jogador 7d atrás
Avaliou um jogador 7d atrás

Monitorando agora

51
Jogador Clube Status Habilidade Confiança Observado Última observação Último voto
Jakub Kamiński Benfica Ativo 130 / 127 40% 2 11.09.2026 -
Alan Varela Porto Ativo 150 / 132 40% 2 11.09.2026 -
William Gomes Porto Ativo 142 / 151 40% 2 11.09.2026 -
Matheus Pereira Cruzeiro Ativo 142 / 140 40% 2 10.09.2026 -
Jhon Arias Palmeiras Ativo 134 / 144 40% 1 10.09.2026 -
Yanis Begraoui Estoril Praia Ativo 140 / 128 40% 1 10.09.2026 -
Pablo Rosario Porto Ativo 141 / 141 40% 2 09.09.2026 -
Rafik Guitane Estoril Praia Ativo 141 / 130 40% 3 09.09.2026 -
Yuri Alberto Corinthians Ativo 142 / 147 40% 1 09.09.2026 -
Dodi Lukébakio Benfica Ativo 136 / 146 40% 2 08.09.2026 -
Iván Fresneda Sporting CP Ativo 141 / 131 40% 1 08.09.2026 -
Samuel Dahl Benfica Ativo 140 / 137 40% 2 06.09.2026 -
Andreas Pereira Palmeiras Ativo 138 / 139 40% 1 06.09.2026 -
Rodrigo Zalazar Sporting CP Ativo 142 / 137 40% 4 05.09.2026 -
Jorge Carrascal Flamengo Ativo 127 / 129 40% 1 05.09.2026 -
Ricardo Horta Braga Ativo 136 / 154 40% 3 04.09.2026 -
Martim Fernandes Porto Ativo 131 / 141 40% 2 04.09.2026 -
Pepê Porto Ativo 150 / 149 40% 3 03.09.2026 -
Bruno Cavalcante Besiktas Ativo 149 / 138 40% 1 03.09.2026 -
Roberto Fernández Braga Ativo 144 / 143 40% 2 01.09.2026 -
Enzo Barrenechea Benfica Ativo 147 / 140 40% 1 01.09.2026 -
Geny Sporting CP Ativo 138 / 151 40% 3 29.08.2026 -
Victor Froholdt Porto Ativo 144 / 146 40% 1 28.08.2026 -
João Carvalho Estoril Praia Ativo 135 / 135 40% 1 28.08.2026 -
Santi García Gil Vicente Ativo 123 / 137 40% 1 28.08.2026 -
Francisco Moura Lusitânia Lourosa Ativo 129 / 143 40% 1 26.08.2026 -
Leandro Barreiro Benfica Ativo 136 / 133 40% 2 23.08.2026 -
Gabri Veiga Porto Rejeitado 149 / 157 40% 2 22.08.2026 Mais informações
Gianluca Prestianni Benfica Ativo 140 / 136 40% 3 20.08.2026 -
Hwang In-Beom Porto Ativo 156 / 138 40% 2 19.08.2026 -
Víctor Gómez Braga Ativo 128 / 125 40% 2 17.08.2026 -
Maximiliano Araújo Sporting CP Ativo 141 / 145 40% 1 17.08.2026 -
Alberto Costa Porto Ativo 139 / 151 40% 1 16.08.2026 -
Nuno Santos Sporting CP Ativo 131 / 135 40% 1 16.08.2026 -
Alexander Bah Benfica Ativo 128 / 140 40% 2 15.08.2026 -
Álvaro Barreal Santos Ativo 137 / 126 40% 1 15.08.2026 -
Andreas Schjelderup Benfica Ativo 142 / 152 40% 2 14.08.2026 -
Jordan Holsgrove Estoril Praia Ativo 126 / 127 40% 1 12.08.2026 -
Paulinho Palmeiras Ativo 136 / 142 40% 1 12.08.2026 -
Isaac Romero Sevilla Ativo 143 / 141 40% 2 08.08.2026 -
Leon Goretzka Aston Villa Ativo 148 / 158 40% 1 08.08.2026 -
Denis Bouanga Los Angeles Football Club Ativo 144 / 132 40% 1 08.08.2026 -
Dávid Strelec Middlesbrough Ativo 133 / 130 40% 1 08.08.2026 -
Kasper Høgh Bloemfontein Celtic Ativo 122 / 132 40% 1 07.08.2026 -
Mikel Merino Arsenal Ativo 147 / 147 40% 1 06.08.2026 -
Andrés Martín Racing Santander Ativo 128 / 137 40% 1 05.08.2026 -
Rafael Santos Borré River Plate Ativo 135 / 135 40% 1 03.08.2026 -
Ez Abde Betis Ativo 158 / 150 40% 1 03.08.2026 -
Jonas Wind Braga Ativo 122 / 130 40% 1 02.08.2026 -
Vitor Roque Palmeiras Ativo 144 / 147 40% 1 02.08.2026 -
Alexey Miranchuk Atlanta United FC Ativo 153 / 150 40% 1 02.08.2026 -